createdAt,value
2022-09-26T07:04:41.994Z,100.00
2022-09-26T07:10:05.085Z,100.00
2022-09-26T07:15:30.876Z,100.00
2022-09-26T07:20:40.014Z,100.00
2022-09-26T07:26:03.081Z,100.00
2022-09-26T07:31:07.636Z,100.00
2022-09-26T07:36:21.205Z,100.00
2022-09-26T07:41:31.231Z,100.00
2022-09-26T07:46:53.159Z,100.00
2022-09-26T07:52:00.340Z,100.00
2022-09-26T07:57:14.925Z,100.00
2022-09-26T08:03:06.523Z,100.00
2022-09-26T08:08:17.181Z,100.00
2022-09-26T08:13:36.311Z,100.00
2022-09-26T08:18:55.554Z,100.00
2022-09-26T08:24:03.045Z,99.41
2022-09-26T08:29:28.433Z,97.34
2022-09-26T08:34:35.112Z,96.76
2022-09-26T08:40:07.357Z,93.22
2022-09-26T08:46:03.810Z,92.68
2022-09-26T08:51:29.429Z,92.19
2022-09-26T08:56:40.822Z,89.85
2022-09-26T09:01:47.014Z,87.65
2022-09-26T09:07:13.933Z,89.81
2022-09-26T09:12:31.390Z,87.28
2022-09-26T09:18:13.261Z,90.58
2022-09-26T09:23:54.301Z,89.61
2022-09-26T09:29:38.159Z,84.75
2022-09-26T09:35:15.486Z,82.42
2022-09-26T09:40:59.510Z,82.46
2022-09-26T09:46:12.476Z,82.12
2022-09-26T09:51:39.758Z,82.07
2022-09-26T09:56:54.802Z,81.62
2022-09-26T10:02:35.414Z,80.62
2022-09-26T10:07:44.834Z,77.83
2022-09-26T10:13:19.270Z,77.60
2022-09-26T10:19:05.653Z,78.43
2022-09-26T10:24:24.450Z,79.39
2022-09-26T10:29:36.914Z,80.17
2022-09-26T10:34:43.118Z,80.72
2022-09-26T10:40:11.641Z,81.04
2022-09-26T10:45:27.551Z,79.19
2022-09-26T10:51:09.522Z,77.35
2022-09-26T10:56:27.586Z,78.02
2022-09-26T11:01:33.767Z,78.42
2022-09-26T11:06:44.016Z,78.85
2022-09-26T11:12:26.297Z,79.11
2022-09-26T11:17:47.830Z,80.46
2022-09-26T11:23:02.987Z,81.49
2022-09-26T11:28:13.953Z,83.94
2022-09-26T11:39:37.207Z,77.53
2022-09-26T11:44:55.531Z,82.01
2022-09-26T11:50:14.600Z,76.27
2022-09-26T11:55:55.389Z,77.76
2022-09-26T12:01:05.609Z,77.27
2022-09-26T12:06:26.267Z,76.83
2022-09-26T12:11:42.466Z,75.78
2022-09-26T12:16:52.318Z,75.35
2022-09-26T12:22:20.954Z,75.04
2022-09-26T12:27:36.044Z,74.34
2022-09-26T12:32:56.612Z,76.17
2022-09-26T12:38:21.302Z,79.03
2022-09-26T12:44:04.693Z,75.78
2022-09-26T12:49:28.651Z,75.76
2022-09-26T12:54:51.096Z,74.64
2022-09-26T13:00:20.750Z,77.96
2022-09-26T13:05:39.141Z,78.42
2022-09-26T13:11:00.058Z,78.84
2022-09-26T13:16:23.977Z,77.10
2022-09-26T13:21:44.865Z,77.31
2022-09-26T13:26:53.257Z,77.52
2022-09-26T13:32:11.182Z,75.89
2022-09-26T13:37:32.428Z,76.45
2022-09-26T13:42:43.719Z,75.36
2022-09-26T13:48:03.807Z,75.53
2022-09-26T13:53:18.346Z,76.36
2022-09-26T13:58:27.449Z,75.28
2022-09-26T14:03:42.073Z,81.04
2022-09-26T14:09:25.726Z,78.85
2022-09-26T14:14:50.787Z,77.50
2022-09-26T14:20:04.839Z,77.41
2022-09-26T14:25:47.623Z,78.16
2022-09-26T14:31:17.685Z,74.95
2022-09-26T14:36:28.960Z,79.18
2022-09-26T14:41:36.630Z,81.11
2022-09-26T14:46:44.254Z,77.51
2022-09-26T14:52:22.028Z,78.64
2022-09-26T14:57:31.715Z,80.40
2022-09-26T15:02:46.700Z,78.28
2022-09-26T15:07:55.322Z,83.03
2022-09-26T15:13:04.115Z,76.49
2022-09-26T15:18:17.901Z,75.30
2022-09-26T15:23:28.602Z,76.45
2022-09-26T15:28:35.568Z,78.72
2022-09-26T15:33:41.659Z,78.07
2022-09-26T15:38:47.535Z,80.38
2022-09-26T15:44:02.754Z,77.76
2022-09-26T15:49:21.254Z,76.83
2022-09-26T15:54:30.601Z,78.04
2022-09-26T15:59:41.134Z,82.04
2022-09-26T16:04:55.024Z,87.78
2022-09-26T16:10:03.037Z,82.86
2022-09-26T16:15:16.953Z,84.69
2022-09-26T16:20:27.351Z,84.65
2022-09-26T16:25:53.608Z,87.67
2022-09-26T16:31:15.774Z,88.13
2022-09-26T16:36:23.500Z,86.86
2022-09-26T16:42:00.499Z,87.29
2022-09-26T16:47:02.622Z,88.47
2022-09-26T16:52:30.768Z,88.95
2022-09-26T16:57:38.658Z,90.32
2022-09-26T17:02:43.111Z,91.16
2022-09-26T17:07:48.044Z,89.37
2022-09-26T17:12:53.230Z,88.18
2022-09-26T17:17:58.278Z,88.84
2022-09-26T17:23:27.716Z,89.89
2022-09-26T17:28:38.076Z,91.36
2022-09-26T17:33:43.691Z,92.10
2022-09-26T17:38:47.657Z,92.81
2022-09-26T17:44:00.363Z,92.75
2022-09-26T17:49:05.356Z,93.32
2022-09-26T17:54:15.375Z,93.24
2022-09-26T17:59:23.274Z,93.67
2022-09-26T18:04:29.286Z,93.71
2022-09-26T18:09:36.969Z,93.96
2022-09-26T18:14:45.426Z,93.41
2022-09-26T18:19:50.665Z,93.43
2022-09-26T18:25:01.617Z,93.10
2022-09-26T18:30:09.194Z,93.04
2022-09-26T18:35:17.035Z,92.74
2022-09-26T18:40:21.236Z,92.98
2022-09-26T18:45:29.394Z,93.14
2022-09-26T18:50:36.782Z,92.70
2022-09-26T18:55:57.779Z,93.14
2022-09-26T19:01:07.339Z,92.69
2022-09-26T19:06:16.101Z,92.69
2022-09-26T19:11:24.822Z,93.68
2022-09-26T19:16:31.181Z,93.35
2022-09-26T19:21:38.553Z,92.97
2022-09-26T19:26:44.728Z,93.14
2022-09-26T19:31:53.755Z,93.10
2022-09-26T19:36:57.650Z,92.80
2022-09-26T19:42:02.730Z,93.14
2022-09-26T19:47:08.310Z,93.29
2022-09-26T19:52:17.232Z,93.38
2022-09-26T19:57:22.588Z,93.77
2022-09-26T20:02:34.062Z,94.14
2022-09-26T20:07:37.910Z,94.02
2022-09-26T20:12:41.631Z,94.71
2022-09-26T20:17:47.555Z,94.92
2022-09-26T20:22:53.711Z,95.10
2022-09-26T20:28:02.065Z,95.00
2022-09-26T20:33:07.271Z,95.36
2022-09-26T20:38:18.861Z,95.80
2022-09-26T20:43:31.356Z,95.84
2022-09-26T20:48:48.135Z,95.98
2022-09-26T20:53:52.323Z,97.54
2022-09-26T20:58:59.226Z,96.34
2022-09-26T21:04:05.555Z,96.74
2022-09-26T21:09:16.476Z,96.63
2022-09-26T21:14:22.776Z,96.53
2022-09-26T21:19:30.357Z,97.08
2022-09-26T21:24:45.404Z,97.59
2022-09-26T21:29:49.188Z,97.77
2022-09-26T21:34:58.722Z,98.15
2022-09-26T21:40:03.205Z,98.53
2022-09-26T21:45:12.298Z,99.39
2022-09-26T21:50:17.303Z,100.00
2022-09-26T21:55:26.516Z,100.00
2022-09-26T22:00:30.228Z,100.00
2022-09-26T22:46:09.286Z,100.00
2022-09-26T22:51:16.255Z,100.00
2022-09-26T22:56:20.762Z,100.00
2022-09-26T23:01:29.722Z,100.00
2022-09-26T23:06:53.264Z,100.00
2022-09-26T23:11:57.392Z,100.00
2022-09-26T23:17:08.070Z,100.00
2022-09-26T23:22:12.242Z,100.00
2022-09-26T23:32:39.972Z,100.00
2022-09-26T23:37:45.886Z,100.00
2022-09-26T23:42:50.497Z,100.00
2022-09-26T23:47:56.803Z,100.00
2022-09-26T23:53:06.506Z,100.00
2022-09-26T23:58:10.839Z,100.00
